createdAt,value
2019-04-30T00:00:38.258Z,58.83
2019-04-30T00:03:57.821Z,51.97
2019-04-30T00:06:57.814Z,54.43
2019-04-30T00:10:03.305Z,65.30
2019-04-30T00:13:10.417Z,57.80
2019-04-30T00:16:15.723Z,59.90
2019-04-30T00:19:21.005Z,59.50
2019-04-30T00:22:33.911Z,53.67
2019-04-30T00:25:35.049Z,58.73
2019-04-30T00:28:46.226Z,55.20
2019-04-30T00:31:47.531Z,61.80
2019-04-30T00:34:52.958Z,64.97
2019-04-30T00:38:06.088Z,62.37
2019-04-30T00:41:11.498Z,55.10
2019-04-30T00:44:19.833Z,58.00
2019-04-30T00:47:25.254Z,59.43
2019-04-30T00:50:33.944Z,63.97
2019-04-30T00:53:38.960Z,60.53
2019-04-30T00:56:45.571Z,66.17
2019-04-30T00:59:51.083Z,54.97
2019-04-30T01:03:05.871Z,58.37
2019-04-30T01:06:11.853Z,65.30
2019-04-30T01:09:17.174Z,58.57
2019-04-30T01:12:27.497Z,55.77
2019-04-30T01:15:32.657Z,55.23
2019-04-30T01:18:38.994Z,54.73
2019-04-30T01:21:47.004Z,57.27
2019-04-30T01:24:51.665Z,58.87
2019-04-30T01:27:58.581Z,59.47
2019-04-30T01:31:04.018Z,69.13
2019-04-30T01:34:12.422Z,67.40
2019-04-30T01:37:16.409Z,60.53
2019-04-30T01:40:21.743Z,62.93
2019-04-30T01:43:33.053Z,58.03
2019-04-30T01:46:34.106Z,51.77
2019-04-30T01:49:44.749Z,58.93
2019-04-30T01:52:55.391Z,57.50
2019-04-30T01:56:22.419Z,67.07
2019-04-30T01:59:49.895Z,62.70
2019-04-30T02:02:55.299Z,60.50
2019-04-30T02:06:00.704Z,55.37
2019-04-30T02:09:08.993Z,59.13
2019-04-30T02:12:14.145Z,60.97
2019-04-30T02:15:19.557Z,57.60
2019-04-30T02:18:24.950Z,59.60
2019-04-30T02:21:33.105Z,55.20
2019-04-30T02:24:38.691Z,60.70
2019-04-30T02:27:44.147Z,59.77
2019-04-30T02:30:50.430Z,60.37
2019-04-30T02:34:04.998Z,57.43
2019-04-30T02:37:14.335Z,62.00
2019-04-30T02:40:21.885Z,55.77
2019-04-30T02:43:30.152Z,49.90
2019-04-30T02:46:40.509Z,51.17
2019-04-30T02:49:46.149Z,59.80
2019-04-30T02:52:53.124Z,57.77
2019-04-30T02:55:59.493Z,61.70
2019-04-30T02:59:05.543Z,67.63
2019-04-30T03:02:13.657Z,58.03
2019-04-30T03:05:20.233Z,54.43
2019-04-30T03:08:25.935Z,62.87
2019-04-30T03:11:31.233Z,53.80
2019-04-30T03:14:36.638Z,58.67
2019-04-30T03:18:03.605Z,54.80
2019-04-30T03:21:13.213Z,55.47
2019-04-30T03:24:20.205Z,59.70
2019-04-30T03:27:25.471Z,52.53
2019-04-30T03:30:32.185Z,60.80
2019-04-30T03:33:42.375Z,61.63
2019-04-30T03:36:46.472Z,57.03
2019-04-30T03:39:51.718Z,58.70
2019-04-30T03:42:59.743Z,50.47
2019-04-30T03:46:04.138Z,55.23
2019-04-30T03:49:12.444Z,57.23
2019-04-30T03:52:19.491Z,55.80
2019-04-30T03:55:24.939Z,56.97
2019-04-30T03:58:30.440Z,57.43
2019-04-30T04:01:51.278Z,56.20
2019-04-30T04:05:05.951Z,53.60
2019-04-30T04:08:45.377Z,51.43
2019-04-30T04:11:51.053Z,64.40
2019-04-30T04:14:56.608Z,56.77
2019-04-30T04:18:02.017Z,54.10
2019-04-30T04:21:13.028Z,47.40
2019-04-30T04:24:14.559Z,62.83
2019-04-30T04:27:19.937Z,52.47
2019-04-30T04:30:25.318Z,50.60
2019-04-30T04:33:32.099Z,51.70
2019-04-30T04:36:39.929Z,53.60
2019-04-30T04:39:44.468Z,59.13
2019-04-30T04:42:49.743Z,53.83
2019-04-30T04:45:55.185Z,50.83
2019-04-30T04:49:00.953Z,49.43
2019-04-30T04:52:07.148Z,54.17
2019-04-30T04:55:14.160Z,55.40
2019-04-30T04:58:21.590Z,51.43
2019-04-30T05:01:28.778Z,51.40
2019-04-30T05:04:33.524Z,46.07
2019-04-30T05:07:39.914Z,56.23
2019-04-30T05:10:45.553Z,57.03
2019-04-30T05:13:51.461Z,52.50
2019-04-30T05:16:58.609Z,44.77
2019-04-30T05:20:03.961Z,54.70
2019-04-30T05:23:10.509Z,50.60
2019-04-30T05:26:15.768Z,56.30
2019-04-30T05:29:20.999Z,47.67
2019-04-30T05:32:26.270Z,47.47
2019-04-30T05:35:31.563Z,46.97
2019-04-30T05:38:39.114Z,60.10
2019-04-30T05:41:45.552Z,56.20
2019-04-30T05:44:52.583Z,53.20
2019-04-30T05:47:58.756Z,49.67
2019-04-30T05:51:05.077Z,56.57
2019-04-30T05:54:10.469Z,47.70
2019-04-30T05:57:15.817Z,57.93
2019-04-30T06:00:21.368Z,49.23
2019-04-30T06:03:30.733Z,51.93
2019-04-30T06:06:33.750Z,47.13
2019-04-30T06:09:51.717Z,50.80
2019-04-30T06:13:00.551Z,52.07
2019-04-30T06:16:11.931Z,54.00
2019-04-30T06:19:17.302Z,58.93
2019-04-30T06:22:23.321Z,59.83
2019-04-30T06:25:37.238Z,57.60
2019-04-30T06:28:36.111Z,54.77
2019-04-30T06:31:43.238Z,63.00
2019-04-30T06:34:49.766Z,62.50
2019-04-30T06:37:55.374Z,63.40
2019-04-30T06:41:00.812Z,65.43
2019-04-30T06:44:09.831Z,61.30
2019-04-30T06:47:15.496Z,69.73
2019-04-30T06:50:20.811Z,66.70
2019-04-30T06:53:43.057Z,71.47
2019-04-30T06:56:48.967Z,64.90
2019-04-30T06:59:55.277Z,61.87
2019-04-30T07:03:02.863Z,56.03
2019-04-30T07:06:08.454Z,56.30
2019-04-30T07:09:26.708Z,60.17
2019-04-30T07:12:50.007Z,56.33
2019-04-30T07:15:56.369Z,59.00
2019-04-30T07:19:01.673Z,52.90
2019-04-30T07:22:08.975Z,55.20
2019-04-30T07:25:14.141Z,53.63
2019-04-30T07:28:19.426Z,52.23
2019-04-30T07:31:24.807Z,52.70
2019-04-30T07:34:36.643Z,58.50
2019-04-30T07:37:39.079Z,47.97
2019-04-30T07:40:44.228Z,57.67
2019-04-30T07:43:51.812Z,53.03
2019-04-30T07:46:59.375Z,51.33
2019-04-30T07:50:05.376Z,52.30
2019-04-30T07:53:12.612Z,46.10
2019-04-30T07:56:25.692Z,53.13
2019-04-30T07:59:30.205Z,47.73
2019-04-30T08:02:43.565Z,48.77
2019-04-30T08:05:49.576Z,43.70
2019-04-30T08:08:57.620Z,48.60
2019-04-30T08:12:01.466Z,52.83
2019-04-30T08:15:09.562Z,50.00
2019-04-30T08:18:14.526Z,48.80
2019-04-30T08:21:22.217Z,44.57
2019-04-30T08:24:29.211Z,51.23
2019-04-30T08:27:34.586Z,47.03
2019-04-30T08:30:39.851Z,52.50
2019-04-30T08:33:45.187Z,51.37
2019-04-30T08:36:51.473Z,43.57
2019-04-30T08:39:56.986Z,47.50
2019-04-30T08:43:02.329Z,46.00
2019-04-30T08:46:09.442Z,47.40
2019-04-30T08:49:14.993Z,46.37
2019-04-30T08:52:22.718Z,47.53
2019-04-30T08:55:30.344Z,47.03
2019-04-30T08:58:35.228Z,43.80
2019-04-30T09:01:40.581Z,42.20
2019-04-30T09:04:46.666Z,40.73
2019-04-30T09:07:52.012Z,42.63
2019-04-30T09:10:59.369Z,42.90
2019-04-30T09:14:04.461Z,42.57
2019-04-30T09:17:09.786Z,40.27
2019-04-30T09:20:15.127Z,41.20
2019-04-30T09:23:20.418Z,45.23
2019-04-30T09:26:25.689Z,36.80
2019-04-30T09:29:31.099Z,40.50
2019-04-30T09:32:36.392Z,43.47
2019-04-30T09:35:41.656Z,41.83
2019-04-30T09:38:48.584Z,41.93
2019-04-30T09:41:54.128Z,37.93
2019-04-30T09:44:59.722Z,39.20
2019-04-30T09:48:05.124Z,36.70
2019-04-30T09:51:11.085Z,39.20
2019-04-30T09:54:19.030Z,41.17
2019-04-30T09:57:23.772Z,37.93
2019-04-30T10:00:30.390Z,38.23
2019-04-30T10:03:36.453Z,43.00
2019-04-30T10:06:42.618Z,39.07
2019-04-30T10:09:50.632Z,42.40
2019-04-30T10:12:54.991Z,40.63
2019-04-30T10:16:09.825Z,35.20
2019-04-30T10:19:19.143Z,36.87
2019-04-30T10:22:24.660Z,39.33
2019-04-30T10:25:31.299Z,40.80
2019-04-30T10:28:40.006Z,36.80
2019-04-30T10:31:45.386Z,38.80
2019-04-30T10:34:52.347Z,37.63
2019-04-30T10:37:59.951Z,34.87
2019-04-30T10:41:05.737Z,42.23
2019-04-30T10:44:11.042Z,39.47
2019-04-30T10:47:16.565Z,35.97
2019-04-30T10:50:24.802Z,35.33
2019-04-30T10:53:30.207Z,39.83
2019-04-30T10:56:35.747Z,36.67
2019-04-30T10:59:42.425Z,37.97
2019-04-30T11:02:49.469Z,34.83
2019-04-30T11:05:54.683Z,36.20
2019-04-30T11:09:00.137Z,33.73
2019-04-30T11:12:13.253Z,37.20
2019-04-30T11:15:20.599Z,37.17
2019-04-30T11:18:25.775Z,36.40
2019-04-30T11:21:31.348Z,34.10
2019-04-30T11:24:53.391Z,36.70
2019-04-30T11:27:44.338Z,33.93
2019-04-30T11:30:51.905Z,31.10
2019-04-30T11:33:59.735Z,32.27
2019-04-30T11:37:05.092Z,34.13
2019-04-30T11:40:11.497Z,32.67
2019-04-30T11:43:18.242Z,32.10
2019-04-30T11:47:04.953Z,35.00
2019-04-30T11:50:16.076Z,30.47
2019-04-30T11:53:27.561Z,38.57
2019-04-30T11:56:28.548Z,28.10
2019-04-30T11:59:34.075Z,31.70
2019-04-30T12:02:42.952Z,29.30
2019-04-30T12:05:49.040Z,27.60
2019-04-30T12:09:26.098Z,30.20
2019-04-30T12:12:31.465Z,28.70
2019-04-30T12:15:37.197Z,26.00
2019-04-30T12:18:42.587Z,23.80
2019-04-30T12:21:48.004Z,25.60
2019-04-30T12:25:02.610Z,27.93
2019-04-30T12:28:04.831Z,29.67
2019-04-30T12:31:10.216Z,26.27
2019-04-30T12:34:15.843Z,23.17
2019-04-30T12:37:21.250Z,23.20
2019-04-30T12:40:31.714Z,21.23
2019-04-30T12:43:33.715Z,26.20
2019-04-30T12:46:40.409Z,23.07
2019-04-30T12:50:09.566Z,21.33
2019-04-30T12:53:25.637Z,23.97
2019-04-30T12:56:39.630Z,26.20
2019-04-30T12:59:44.936Z,23.17
2019-04-30T13:02:51.811Z,26.60
2019-04-30T13:05:58.415Z,21.23
2019-04-30T13:09:05.812Z,21.50
2019-04-30T13:12:13.341Z,24.70
2019-04-30T13:15:19.031Z,19.23
2019-04-30T13:18:24.277Z,19.90
2019-04-30T13:21:29.566Z,18.27
2019-04-30T13:24:35.037Z,19.10
2019-04-30T13:27:43.519Z,19.87
2019-04-30T13:30:49.439Z,21.13
2019-04-30T13:34:01.528Z,21.47
2019-04-30T13:37:09.275Z,19.20
2019-04-30T13:40:39.049Z,20.03
2019-04-30T13:44:09.500Z,18.47
2019-04-30T13:47:16.537Z,18.17
2019-04-30T13:50:21.725Z,17.50
2019-04-30T13:53:28.452Z,23.07
2019-04-30T13:56:34.148Z,20.10
2019-04-30T13:59:40.565Z,21.90
2019-04-30T14:02:51.591Z,18.83
2019-04-30T14:05:59.327Z,20.60
2019-04-30T14:09:12.057Z,18.47
2019-04-30T14:12:17.582Z,19.00
2019-04-30T14:15:23.781Z,18.87
2019-04-30T14:18:33.763Z,17.50
2019-04-30T14:21:36.532Z,20.13
2019-04-30T14:24:42.269Z,16.93
2019-04-30T14:27:51.769Z,20.60
2019-04-30T14:30:55.139Z,19.27
2019-04-30T14:34:00.480Z,19.80
2019-04-30T14:37:05.821Z,21.60
2019-04-30T14:40:13.022Z,22.33
2019-04-30T14:43:50.967Z,21.97
2019-04-30T14:47:11.651Z,21.83
2019-04-30T14:50:19.500Z,19.00
2019-04-30T14:53:40.277Z,19.20
2019-04-30T14:57:08.655Z,19.43
2019-04-30T15:00:43.056Z,20.30
2019-04-30T15:03:49.623Z,23.67
2019-04-30T15:06:54.924Z,20.20
2019-04-30T15:10:00.121Z,23.63
2019-04-30T15:13:06.336Z,29.10
2019-04-30T15:16:11.804Z,23.27
2019-04-30T15:19:17.150Z,24.80
2019-04-30T15:22:22.589Z,26.93
2019-04-30T15:25:34.029Z,21.53
2019-04-30T15:28:34.833Z,21.53
2019-04-30T15:31:42.535Z,22.83
2019-04-30T15:34:48.936Z,20.50
2019-04-30T15:37:56.156Z,24.40
2019-04-30T15:41:01.867Z,26.03
2019-04-30T15:44:10.101Z,28.17
2019-04-30T15:47:15.656Z,22.60
2019-04-30T15:50:21.149Z,22.10
2019-04-30T15:53:26.594Z,25.03
2019-04-30T15:56:37.092Z,23.80
2019-04-30T15:59:42.905Z,22.63
2019-04-30T16:03:00.215Z,24.83
2019-04-30T16:06:05.599Z,23.43
2019-04-30T16:09:13.741Z,24.60
2019-04-30T16:12:42.219Z,24.20
2019-04-30T16:15:49.156Z,24.47
2019-04-30T16:18:58.844Z,31.40
2019-04-30T16:22:04.626Z,25.93
2019-04-30T16:25:30.461Z,27.80
2019-04-30T16:28:35.980Z,24.43
2019-04-30T16:31:41.302Z,31.07
2019-04-30T16:34:49.829Z,27.00
2019-04-30T16:38:53.536Z,28.90
2019-04-30T16:41:59.244Z,27.50
2019-04-30T16:45:04.885Z,27.43
2019-04-30T16:48:12.012Z,30.40
2019-04-30T16:51:18.676Z,27.80
2019-04-30T16:54:25.194Z,31.13
2019-04-30T16:57:31.679Z,29.10
2019-04-30T17:00:39.054Z,29.93
2019-04-30T17:03:45.514Z,29.07
2019-04-30T17:06:58.752Z,31.03
2019-04-30T17:10:13.471Z,27.13
2019-04-30T17:13:43.742Z,27.10
2019-04-30T17:16:49.406Z,26.90
2019-04-30T17:19:54.712Z,30.50
2019-04-30T17:23:00.001Z,28.40
2019-04-30T17:26:05.397Z,27.40
2019-04-30T17:29:10.716Z,27.10
2019-04-30T17:32:16.220Z,26.83
2019-04-30T17:35:21.523Z,29.20
2019-04-30T17:38:26.639Z,25.80
2019-04-30T17:41:31.934Z,25.40
2019-04-30T17:44:37.071Z,30.40
2019-04-30T17:47:42.293Z,23.50
2019-04-30T17:50:49.643Z,26.93
2019-04-30T17:54:15.968Z,30.57
2019-04-30T17:57:31.654Z,26.27
2019-04-30T18:00:29.598Z,27.83
2019-04-30T18:03:34.794Z,27.43
2019-04-30T18:06:40.061Z,27.13
2019-04-30T18:09:46.567Z,27.10
2019-04-30T18:12:51.810Z,29.80
2019-04-30T18:16:00.240Z,26.93
2019-04-30T18:19:18.604Z,26.40
2019-04-30T18:22:40.090Z,32.10
2019-04-30T18:25:53.629Z,32.67
2019-04-30T18:28:58.902Z,30.50
2019-04-30T18:32:04.094Z,27.03
2019-04-30T18:35:10.398Z,27.27
2019-04-30T18:38:17.746Z,28.60
2019-04-30T18:41:22.511Z,29.40
2019-04-30T18:44:31.478Z,29.27
2019-04-30T18:47:37.371Z,37.37
2019-04-30T18:50:43.391Z,30.37
2019-04-30T18:53:50.018Z,29.80
2019-04-30T18:56:55.232Z,29.47
2019-04-30T19:00:01.484Z,29.20
2019-04-30T19:03:11.559Z,26.70
2019-04-30T19:06:26.274Z,29.80
2019-04-30T19:09:40.021Z,31.17
2019-04-30T19:13:05.314Z,36.87
2019-04-30T19:16:42.293Z,29.97
2019-04-30T19:20:22.594Z,29.27
2019-04-30T19:23:33.231Z,31.67
2019-04-30T19:26:38.888Z,28.70
2019-04-30T19:29:46.335Z,31.37
2019-04-30T19:32:51.854Z,32.93
2019-04-30T19:35:58.886Z,29.70
2019-04-30T19:39:08.632Z,28.87
2019-04-30T19:42:15.901Z,29.20
2019-04-30T19:45:25.675Z,29.13
2019-04-30T19:48:32.169Z,25.63
2019-04-30T19:51:37.739Z,27.90
2019-04-30T19:54:44.695Z,26.57
2019-04-30T19:57:51.133Z,25.67
2019-04-30T20:01:03.547Z,21.70
2019-04-30T20:04:09.782Z,27.30
2019-04-30T20:07:19.427Z,27.47
2019-04-30T20:10:24.919Z,31.43
2019-04-30T20:13:37.070Z,26.93
2019-04-30T20:16:43.065Z,30.97
2019-04-30T20:19:48.960Z,34.70
2019-04-30T20:22:58.234Z,31.20
2019-04-30T20:26:04.024Z,30.57
2019-04-30T20:29:13.348Z,27.17
2019-04-30T20:32:20.834Z,31.73
2019-04-30T20:35:26.920Z,25.70
2019-04-30T20:38:52.957Z,28.13
2019-04-30T20:42:00.413Z,28.60
2019-04-30T20:45:09.634Z,25.90
2019-04-30T20:48:16.522Z,30.03
2019-04-30T20:51:23.707Z,27.70
2019-04-30T20:54:29.267Z,28.13
2019-04-30T20:57:39.495Z,35.73
2019-04-30T21:00:45.304Z,33.00
2019-04-30T21:03:56.613Z,27.27
2019-04-30T21:06:59.491Z,28.73
2019-04-30T21:10:10.174Z,27.20
2019-04-30T21:13:15.304Z,34.47
2019-04-30T21:16:20.478Z,35.37
2019-04-30T21:19:25.929Z,30.10
2019-04-30T21:22:31.115Z,36.03
2019-04-30T21:25:36.328Z,35.17
2019-04-30T21:28:43.242Z,34.73
2019-04-30T21:32:12.833Z,36.53
2019-04-30T21:35:38.907Z,40.03
2019-04-30T21:38:45.147Z,42.37
2019-04-30T21:41:51.125Z,40.37
2019-04-30T21:44:56.499Z,42.20
2019-04-30T21:48:04.028Z,41.40
2019-04-30T21:51:09.587Z,42.90
2019-04-30T21:54:14.971Z,39.07
2019-04-30T21:57:20.217Z,37.93
2019-04-30T22:00:49.423Z,42.73
2019-04-30T22:03:56.049Z,46.87
2019-04-30T22:07:01.277Z,44.87
2019-04-30T22:10:06.939Z,40.50
2019-04-30T22:13:12.180Z,47.47
2019-04-30T22:16:20.074Z,43.30
2019-04-30T22:19:24.274Z,43.47
2019-04-30T22:22:29.497Z,46.83
2019-04-30T22:25:36.743Z,50.77
2019-04-30T22:28:42.015Z,43.23
2019-04-30T22:31:49.352Z,44.57
2019-04-30T22:34:56.834Z,42.13
2019-04-30T22:38:03.942Z,53.57
2019-04-30T22:41:09.138Z,49.97
2019-04-30T22:44:14.291Z,51.67
2019-04-30T22:47:19.467Z,52.53
2019-04-30T22:50:24.657Z,55.90
2019-04-30T22:53:29.865Z,54.23
2019-04-30T22:59:49.806Z,48.43
2019-04-30T23:02:54.006Z,53.50
2019-04-30T23:05:59.308Z,48.87
2019-04-30T23:09:06.207Z,60.40
2019-04-30T23:12:16.778Z,50.10
2019-04-30T23:15:21.363Z,46.40
2019-04-30T23:18:26.657Z,51.40
2019-04-30T23:21:31.857Z,53.53
2019-04-30T23:24:37.007Z,51.07
2019-04-30T23:27:42.141Z,55.73
2019-04-30T23:30:49.531Z,52.47
2019-04-30T23:33:54.759Z,52.80
2019-04-30T23:37:01.107Z,51.53
2019-04-30T23:40:27.412Z,49.20
2019-04-30T23:43:32.539Z,57.57
2019-04-30T23:46:37.717Z,53.83
2019-04-30T23:49:42.991Z,52.90
2019-04-30T23:52:48.217Z,56.10
2019-04-30T23:55:53.483Z,52.00
2019-04-30T23:58:58.653Z,51.23
